createdAt,value
2022-09-01T00:00:13.490Z,10.63
2022-09-01T00:02:40.898Z,10.63
2022-09-01T00:05:08.202Z,10.63
2022-09-01T00:07:35.860Z,10.45
2022-09-01T00:10:07.398Z,10.66
2022-09-01T00:12:34.679Z,10.73
2022-09-01T00:15:01.834Z,10.66
2022-09-01T00:17:29.151Z,10.64
2022-09-01T00:19:55.992Z,10.66
2022-09-01T00:22:22.958Z,10.60
2022-09-01T00:24:49.828Z,10.56
2022-09-01T00:27:17.190Z,10.28
2022-09-01T00:29:44.865Z,10.39
2022-09-01T00:32:12.483Z,10.37
2022-09-01T00:34:42.096Z,10.37
2022-09-01T00:37:09.000Z,10.12
2022-09-01T00:39:35.861Z,9.87
2022-09-01T00:42:02.941Z,9.66
2022-09-01T00:44:31.286Z,9.51
2022-09-01T00:46:59.886Z,9.09
2022-09-01T00:49:35.374Z,9.33
2022-09-01T00:52:07.627Z,9.39
2022-09-01T00:54:40.049Z,9.72
2022-09-01T00:57:09.436Z,9.80
2022-09-01T00:59:39.520Z,9.49
2022-09-01T01:02:06.478Z,9.29
2022-09-01T01:04:33.311Z,9.13
2022-09-01T01:07:04.090Z,9.21
2022-09-01T01:09:34.658Z,9.49
2022-09-01T01:12:03.309Z,9.39
2022-09-01T01:14:32.001Z,9.33
2022-09-01T01:17:00.449Z,9.17
2022-09-01T01:19:58.839Z,9.13
2022-09-01T01:22:54.289Z,9.32
2022-09-01T01:25:22.540Z,9.24
2022-09-01T01:27:50.584Z,9.31
2022-09-01T01:30:19.107Z,9.21
2022-09-01T01:32:47.749Z,9.22
2022-09-01T01:35:16.898Z,9.34
2022-09-01T01:37:45.888Z,9.35
2022-09-01T01:40:17.043Z,9.26
2022-09-01T01:42:49.695Z,8.76
2022-09-01T01:45:20.352Z,9.03
2022-09-01T01:47:56.604Z,9.10
2022-09-01T01:50:33.540Z,8.88
2022-09-01T01:53:02.952Z,9.20
2022-09-01T01:55:38.218Z,9.44
2022-09-01T01:58:05.377Z,9.21
2022-09-01T02:00:35.152Z,9.13
2022-09-01T02:03:03.326Z,9.27
2022-09-01T02:05:33.196Z,9.11
2022-09-01T02:08:04.753Z,9.24
2022-09-01T02:10:44.827Z,9.11
2022-09-01T02:13:16.557Z,9.25
2022-09-01T02:15:49.520Z,9.05
2022-09-01T02:18:19.881Z,9.06
2022-09-01T02:20:49.531Z,8.98
2022-09-01T02:23:20.236Z,8.89
2022-09-01T02:26:14.087Z,8.77
2022-09-01T02:28:37.141Z,8.52
2022-09-01T02:31:05.336Z,8.60
2022-09-01T02:33:32.713Z,8.60
2022-09-01T02:36:02.248Z,8.89
2022-09-01T02:38:29.878Z,9.16
2022-09-01T02:41:01.780Z,9.19
2022-09-01T02:43:29.952Z,9.02
2022-09-01T02:46:07.559Z,8.67
2022-09-01T02:48:40.402Z,8.57
2022-09-01T02:51:10.506Z,8.83
2022-09-01T02:53:39.545Z,8.86
2022-09-01T02:56:14.492Z,8.67
2022-09-01T02:58:46.346Z,8.48
2022-09-01T03:01:22.178Z,8.39
2022-09-01T03:03:51.027Z,8.40
2022-09-01T03:06:19.915Z,8.31
2022-09-01T03:08:48.205Z,8.35
2022-09-01T03:11:15.329Z,8.55
2022-09-01T03:13:43.232Z,8.72
2022-09-01T03:16:11.095Z,8.57
2022-09-01T03:18:39.725Z,8.42
2022-09-01T03:21:08.471Z,8.25
2022-09-01T03:23:37.105Z,8.47
2022-09-01T03:26:04.418Z,8.28
2022-09-01T03:28:32.019Z,8.54
2022-09-01T03:30:59.943Z,8.38
2022-09-01T03:33:28.496Z,8.48
2022-09-01T03:35:57.123Z,8.17
2022-09-01T03:38:24.862Z,8.33
2022-09-01T03:41:02.034Z,8.26
2022-09-01T03:43:36.056Z,8.54
2022-09-01T03:46:03.957Z,8.50
2022-09-01T03:48:32.554Z,8.66
2022-09-01T03:51:03.296Z,8.21
2022-09-01T03:53:37.065Z,8.02
2022-09-01T03:56:06.169Z,8.16
2022-09-01T03:58:33.763Z,8.13
2022-09-01T04:01:03.061Z,7.94
2022-09-01T04:03:33.012Z,7.60
2022-09-01T04:06:02.307Z,7.60
2022-09-01T04:08:32.813Z,8.05
2022-09-01T04:11:05.330Z,8.03
2022-09-01T04:13:37.399Z,7.80
2022-09-01T04:16:10.907Z,7.60
2022-09-01T04:18:40.214Z,7.97
2022-09-01T04:21:08.247Z,7.76
2022-09-01T04:23:37.225Z,7.72
2022-09-01T04:26:14.695Z,7.66
2022-09-01T04:28:47.416Z,8.00
2022-09-01T04:31:18.717Z,7.94
2022-09-01T04:33:50.133Z,7.59
2022-09-01T04:36:23.601Z,7.34
2022-09-01T04:38:56.533Z,7.67
2022-09-01T04:41:31.977Z,7.86
2022-09-01T04:44:04.832Z,7.44
2022-09-01T04:46:40.882Z,7.47
2022-09-01T04:49:13.214Z,7.22
2022-09-01T04:51:41.842Z,7.03
2022-09-01T04:54:14.556Z,7.01
2022-09-01T04:56:49.612Z,7.16
2022-09-01T04:59:20.427Z,7.25
2022-09-01T05:01:54.927Z,7.18
2022-09-01T05:04:27.546Z,7.22
2022-09-01T05:07:01.212Z,7.32
2022-09-01T05:09:37.941Z,7.51
2022-09-01T05:12:27.679Z,7.38
2022-09-01T05:14:56.067Z,7.30
2022-09-01T05:17:23.393Z,7.31
2022-09-01T05:19:51.045Z,7.34
2022-09-01T05:22:22.379Z,7.36
2022-09-01T05:25:13.529Z,7.84
2022-09-01T05:27:49.834Z,7.94
2022-09-01T05:30:19.513Z,7.67
2022-09-01T05:32:49.157Z,7.26
2022-09-01T05:35:17.636Z,6.90
2022-09-01T05:37:44.941Z,7.12
2022-09-01T05:40:16.353Z,7.02
2022-09-01T05:42:45.803Z,7.21
2022-09-01T05:45:14.306Z,7.57
2022-09-01T05:47:42.161Z,7.63
2022-09-01T05:50:14.252Z,7.62
2022-09-01T05:52:44.568Z,7.76
2022-09-01T05:55:11.802Z,7.57
2022-09-01T05:57:42.084Z,7.43
2022-09-01T06:00:14.467Z,7.54
2022-09-01T06:02:42.936Z,7.53
2022-09-01T06:05:15.930Z,7.77
2022-09-01T06:07:44.402Z,7.77
2022-09-01T06:10:14.724Z,8.11
2022-09-01T06:12:43.264Z,8.23
2022-09-01T06:15:16.274Z,8.20
2022-09-01T06:17:49.089Z,8.24
2022-09-01T06:20:18.942Z,8.10
2022-09-01T06:22:47.613Z,7.82
2022-09-01T06:25:18.643Z,8.11
2022-09-01T06:27:48.336Z,8.24
2022-09-01T06:30:24.448Z,8.42
2022-09-01T06:32:57.978Z,8.48
2022-09-01T06:35:29.558Z,8.55
2022-09-01T06:37:58.496Z,8.62
2022-09-01T06:40:41.594Z,8.60
2022-09-01T06:43:12.162Z,8.74
2022-09-01T06:45:49.850Z,8.81
2022-09-01T06:48:18.484Z,8.86
2022-09-01T06:53:35.734Z,8.96
2022-09-01T06:56:06.252Z,9.06
2022-09-01T06:58:35.060Z,9.07
2022-09-01T07:01:14.642Z,9.21
2022-09-01T07:03:43.847Z,9.35
2022-09-01T07:09:22.150Z,9.41
2022-09-01T07:12:25.903Z,9.44
2022-09-01T07:17:50.117Z,9.68
2022-09-01T07:20:23.897Z,9.70
2022-09-01T07:23:08.145Z,9.81
2022-09-01T07:26:01.347Z,9.94
2022-09-01T07:28:37.046Z,10.08
2022-09-01T07:33:55.696Z,10.33
2022-09-01T07:46:36.602Z,10.66
2022-09-01T07:49:02.695Z,10.71
2022-09-01T07:51:42.126Z,10.83
2022-09-01T07:54:09.264Z,10.96
2022-09-01T07:59:27.978Z,11.10
2022-09-01T08:02:12.309Z,11.11
2022-09-01T08:04:41.267Z,11.12
2022-09-01T08:07:15.354Z,11.15
2022-09-01T08:09:44.639Z,11.28
2022-09-01T08:12:12.999Z,11.28
2022-09-01T08:14:46.748Z,11.40
2022-09-01T08:17:18.130Z,11.43
2022-09-01T08:20:08.568Z,11.65
2022-09-01T08:22:55.363Z,11.75
2022-09-01T08:25:33.708Z,11.81
2022-09-01T08:28:02.014Z,11.93
2022-09-01T08:30:30.125Z,12.03
2022-09-01T08:32:58.069Z,11.99
2022-09-01T08:35:24.964Z,12.08
2022-09-01T08:37:54.171Z,12.14
2022-09-01T08:40:23.662Z,12.24
2022-09-01T08:43:20.303Z,12.41
2022-09-01T08:45:56.038Z,12.54
2022-09-01T08:49:24.087Z,12.54
2022-09-01T08:51:50.070Z,12.60
2022-09-01T08:54:29.989Z,12.61
2022-09-01T08:57:14.680Z,12.63
2022-09-01T09:00:20.138Z,12.64
2022-09-01T09:03:07.739Z,12.69
2022-09-01T09:06:12.924Z,12.80
2022-09-01T09:08:58.559Z,12.92
2022-09-01T09:11:34.449Z,12.96
2022-09-01T09:14:07.279Z,13.10
2022-09-01T09:17:04.444Z,13.12
2022-09-01T09:19:32.235Z,13.07
2022-09-01T09:22:02.461Z,13.04
2022-09-01T09:24:48.503Z,13.22
2022-09-01T09:27:26.878Z,13.25
2022-09-01T09:30:09.206Z,13.27
2022-09-01T09:35:50.902Z,13.59
2022-09-01T09:38:24.380Z,13.62
2022-09-01T09:41:16.475Z,13.68
2022-09-01T09:44:03.332Z,13.75
2022-09-01T09:46:43.668Z,13.91
2022-09-01T09:49:36.373Z,14.07
2022-09-01T09:52:10.653Z,14.09
2022-09-01T09:55:05.173Z,14.38
2022-09-01T09:57:32.872Z,14.46
2022-09-01T10:00:08.980Z,14.70
2022-09-01T10:02:44.080Z,14.76
2022-09-01T10:05:40.364Z,14.86
2022-09-01T10:08:11.731Z,14.96
2022-09-01T10:10:57.269Z,15.07
2022-09-01T10:13:25.945Z,15.17
2022-09-01T10:15:57.226Z,15.29
2022-09-01T10:18:30.315Z,15.33
2022-09-01T10:21:15.992Z,15.34
2022-09-01T10:23:43.451Z,15.38
2022-09-01T10:26:19.149Z,15.53
2022-09-01T10:29:22.613Z,15.61
2022-09-01T10:31:49.455Z,15.61
2022-09-01T10:34:19.438Z,15.67
2022-09-01T10:36:55.860Z,15.66
2022-09-01T10:39:27.709Z,15.70
2022-09-01T10:42:08.313Z,15.75
2022-09-01T10:44:58.350Z,15.93
2022-09-01T10:47:30.166Z,16.13
2022-09-01T10:50:00.128Z,16.37
2022-09-01T10:52:44.001Z,16.53
2022-09-01T10:55:26.417Z,16.83
2022-09-01T11:01:41.110Z,17.23
2022-09-01T11:03:54.331Z,17.38
2022-09-01T11:07:11.554Z,17.54
2022-09-01T11:09:38.463Z,17.64
2022-09-01T11:12:28.815Z,17.81
2022-09-01T11:15:35.494Z,17.96
2022-09-01T11:18:03.634Z,18.02
2022-09-01T11:20:36.871Z,18.27
2022-09-01T11:23:14.775Z,18.34
2022-09-01T11:26:19.075Z,18.44
2022-09-01T11:28:38.764Z,18.64
2022-09-01T11:31:06.479Z,18.82
2022-09-01T11:33:52.257Z,18.77
2022-09-01T11:36:30.892Z,19.10
2022-09-01T11:39:08.744Z,19.12
2022-09-01T11:41:58.550Z,19.05
2022-09-01T11:44:54.017Z,19.09
2022-09-01T11:47:27.978Z,19.04
2022-09-01T11:50:01.057Z,19.14
2022-09-01T11:52:34.321Z,19.07
2022-09-01T11:55:01.596Z,18.78
2022-09-01T11:57:37.043Z,18.76
2022-09-01T12:00:11.139Z,19.04
2022-09-01T12:02:51.385Z,19.10
2022-09-01T12:05:31.462Z,19.15
2022-09-01T12:07:59.637Z,19.41
2022-09-01T12:10:33.696Z,19.48
2022-09-01T12:13:19.536Z,19.73
2022-09-01T12:16:17.459Z,19.96
2022-09-01T12:18:48.251Z,19.91
2022-09-01T12:21:34.803Z,20.01
2022-09-01T12:24:15.473Z,20.30
2022-09-01T12:26:43.296Z,20.45
2022-09-01T12:29:11.428Z,20.54
2022-09-01T12:31:41.387Z,20.77
2022-09-01T12:34:24.962Z,20.83
2022-09-01T12:37:08.355Z,21.17
2022-09-01T12:39:48.009Z,20.83
2022-09-01T12:42:27.535Z,20.66
2022-09-01T12:44:57.471Z,21.11
2022-09-01T12:47:36.337Z,21.41
2022-09-01T12:50:05.820Z,21.10
2022-09-01T12:52:40.152Z,21.50
2022-09-01T12:55:07.101Z,22.18
2022-09-01T12:57:36.753Z,21.82
2022-09-01T13:00:19.917Z,22.51
2022-09-01T13:02:53.329Z,22.62
2022-09-01T13:05:41.712Z,22.17
2022-09-01T13:08:13.938Z,22.46
2022-09-01T13:10:49.735Z,23.31
2022-09-01T13:13:17.524Z,23.77
2022-09-01T13:15:50.381Z,24.07
2022-09-01T13:18:19.269Z,23.96
2022-09-01T13:20:46.339Z,24.60
2022-09-01T13:23:13.361Z,24.57
2022-09-01T13:25:41.608Z,24.90
2022-09-01T13:28:08.958Z,24.43
2022-09-01T13:30:35.833Z,22.94
2022-09-01T13:33:19.215Z,21.56
2022-09-01T13:35:46.635Z,21.70
2022-09-01T13:38:16.294Z,21.64
2022-09-01T13:40:45.567Z,22.47
2022-09-01T13:43:14.112Z,22.25
2022-09-01T13:45:42.300Z,23.05
2022-09-01T13:48:16.625Z,23.36
2022-09-01T13:53:32.671Z,23.77
2022-09-01T13:55:59.502Z,23.73
2022-09-01T13:58:26.323Z,22.96
2022-09-01T14:00:53.227Z,22.65
2022-09-01T14:03:22.662Z,22.17
2022-09-01T14:05:49.849Z,23.11
2022-09-01T14:08:19.745Z,22.92
2022-09-01T14:10:51.045Z,23.89
2022-09-01T14:13:20.253Z,24.19
2022-09-01T14:15:48.346Z,24.23
2022-09-01T14:18:16.313Z,24.12
2022-09-01T14:20:46.039Z,24.66
2022-09-01T14:23:15.038Z,25.18
2022-09-01T14:25:44.966Z,25.04
2022-09-01T14:28:13.266Z,25.48
2022-09-01T14:30:42.836Z,25.09
2022-09-01T14:33:10.952Z,25.61
2022-09-01T14:35:42.980Z,25.84
2022-09-01T14:38:10.383Z,26.02
2022-09-01T14:40:38.786Z,25.94
2022-09-01T14:43:09.898Z,26.07
2022-09-01T14:45:37.816Z,25.79
2022-09-01T14:48:05.574Z,26.32
2022-09-01T14:50:34.156Z,26.27
2022-09-01T14:53:02.759Z,25.88
2022-09-01T14:55:30.637Z,25.74
2022-09-01T14:57:57.696Z,26.02
2022-09-01T15:00:27.951Z,26.54
2022-09-01T15:02:55.627Z,26.66
2022-09-01T15:05:23.249Z,26.74
2022-09-01T15:07:50.936Z,26.38
2022-09-01T15:10:25.359Z,26.92
2022-09-01T15:12:57.286Z,26.84
2022-09-01T15:15:25.485Z,27.47
2022-09-01T15:17:52.717Z,27.70
2022-09-01T15:20:38.099Z,27.71
2022-09-01T15:23:05.503Z,27.98
2022-09-01T15:25:32.490Z,27.75
2022-09-01T15:28:00.329Z,27.75
2022-09-01T15:30:28.126Z,27.84
2022-09-01T15:32:55.388Z,27.75
2022-09-01T15:35:23.068Z,27.91
2022-09-01T15:37:51.571Z,27.68
2022-09-01T15:40:19.587Z,28.16
2022-09-01T15:42:46.744Z,28.23
2022-09-01T15:45:19.684Z,27.88
2022-09-01T15:47:48.400Z,28.01
2022-09-01T15:50:21.398Z,27.81
2022-09-01T15:52:55.873Z,27.90
2022-09-01T15:55:28.602Z,28.08
2022-09-01T15:57:55.937Z,28.60
2022-09-01T16:00:25.497Z,27.96
2022-09-01T16:02:54.529Z,28.13
2022-09-01T16:05:21.554Z,28.53
2022-09-01T16:07:50.227Z,28.07
2022-09-01T16:10:17.089Z,27.69
2022-09-01T16:12:44.776Z,28.06
2022-09-01T16:15:15.695Z,27.68
2022-09-01T16:18:21.390Z,28.44
2022-09-01T16:21:10.088Z,27.90
2022-09-01T16:23:44.050Z,28.04
2022-09-01T16:26:12.165Z,28.07
2022-09-01T16:28:39.640Z,27.80
2022-09-01T16:31:21.190Z,27.58
2022-09-01T16:33:51.568Z,27.84
2022-09-01T16:36:34.767Z,27.52
2022-09-01T16:39:11.531Z,27.16
2022-09-01T16:42:04.111Z,27.64
2022-09-01T16:45:17.241Z,27.12
2022-09-01T16:47:49.123Z,27.45
2022-09-01T16:50:38.707Z,27.26
2022-09-01T16:53:30.682Z,27.50
2022-09-01T16:56:09.279Z,26.83
2022-09-01T16:58:54.538Z,26.87
2022-09-01T17:02:11.217Z,27.39
2022-09-01T17:04:48.017Z,26.39
2022-09-01T17:07:14.935Z,25.34
2022-09-01T17:09:49.852Z,23.82
2022-09-01T17:12:33.300Z,22.90
2022-09-01T17:15:31.677Z,21.78
2022-09-01T17:18:21.989Z,21.85
2022-09-01T17:21:02.337Z,21.29
2022-09-01T17:23:35.633Z,20.77
2022-09-01T17:26:15.001Z,20.55
2022-09-01T17:29:11.999Z,20.36
2022-09-01T17:32:30.978Z,20.12
2022-09-01T17:35:23.630Z,19.82
2022-09-01T17:38:09.017Z,19.57
2022-09-01T17:40:50.766Z,19.78
2022-09-01T17:43:29.419Z,19.16
2022-09-01T17:46:13.530Z,19.22
2022-09-01T17:48:43.311Z,18.96
2022-09-01T17:51:26.022Z,18.81
2022-09-01T17:54:17.321Z,18.66
2022-09-01T17:56:49.980Z,18.68
2022-09-01T17:59:54.647Z,18.49
2022-09-01T18:02:24.753Z,18.57
2022-09-01T18:04:55.995Z,18.43
2022-09-01T18:07:41.374Z,18.36
2022-09-01T18:10:14.077Z,18.23
2022-09-01T18:12:43.263Z,18.16
2022-09-01T18:15:29.352Z,18.00
2022-09-01T18:18:14.564Z,17.80
2022-09-01T18:20:46.466Z,17.82
2022-09-01T18:23:19.380Z,17.79
2022-09-01T18:25:49.936Z,17.75
2022-09-01T18:28:17.131Z,17.60
2022-09-01T18:30:59.323Z,17.57
2022-09-01T18:33:29.815Z,17.37
2022-09-01T18:36:03.924Z,17.58
2022-09-01T18:38:43.441Z,17.53
2022-09-01T18:41:28.699Z,17.49
2022-09-01T18:44:14.317Z,17.39
2022-09-01T18:46:54.975Z,17.11
2022-09-01T18:49:29.129Z,16.90
2022-09-01T18:52:31.214Z,16.99
2022-09-01T18:55:19.822Z,16.82
2022-09-01T18:57:52.574Z,16.79
2022-09-01T19:00:21.390Z,16.84
2022-09-01T19:02:53.580Z,16.79
2022-09-01T19:05:29.031Z,16.54
2022-09-01T19:08:08.372Z,16.56
2022-09-01T19:10:52.833Z,16.51
2022-09-01T19:13:44.853Z,16.31
2022-09-01T19:16:32.447Z,16.33
2022-09-01T19:19:17.279Z,16.45
2022-09-01T19:21:44.750Z,16.36
2022-09-01T19:24:26.607Z,16.31
2022-09-01T19:27:21.919Z,16.14
2022-09-01T19:29:53.657Z,15.98
2022-09-01T19:32:23.003Z,16.09
2022-09-01T19:34:59.988Z,16.06
2022-09-01T19:37:26.866Z,16.03
2022-09-01T19:39:54.620Z,15.85
2022-09-01T19:43:11.452Z,15.91
2022-09-01T19:45:47.275Z,15.94
2022-09-01T19:48:25.213Z,15.83
2022-09-01T19:50:59.277Z,15.79
2022-09-01T19:53:45.504Z,15.70
2022-09-01T19:56:35.499Z,15.69
2022-09-01T19:59:27.681Z,15.67
2022-09-01T20:02:04.535Z,15.34
2022-09-01T20:04:41.289Z,15.34
2022-09-01T20:07:51.185Z,15.48
2022-09-01T20:10:37.952Z,15.31
2022-09-01T20:13:10.782Z,15.21
2022-09-01T20:15:55.116Z,15.25
2022-09-01T20:18:31.121Z,15.23
2022-09-01T20:21:04.850Z,15.21
2022-09-01T20:24:00.171Z,15.17
2022-09-01T20:26:32.820Z,15.14
2022-09-01T20:29:09.132Z,15.00
2022-09-01T20:31:48.967Z,14.96
2022-09-01T20:34:15.756Z,14.95
2022-09-01T20:36:49.749Z,14.84
2022-09-01T20:39:40.014Z,14.86
2022-09-01T20:42:13.368Z,14.77
2022-09-01T20:44:45.140Z,14.83
2022-09-01T20:47:12.546Z,14.86
2022-09-01T20:49:40.310Z,14.78
2022-09-01T20:52:13.012Z,14.72
2022-09-01T20:55:12.076Z,14.86
2022-09-01T20:57:54.387Z,14.73
2022-09-01T21:00:25.948Z,14.77
2022-09-01T21:03:19.247Z,14.67
2022-09-01T21:06:15.697Z,14.65
2022-09-01T21:09:20.814Z,14.71
2022-09-01T21:12:02.551Z,14.42
2022-09-01T21:14:48.557Z,14.48
2022-09-01T21:17:33.981Z,14.62
2022-09-01T21:20:22.169Z,14.51
2022-09-01T21:22:50.355Z,14.47
2022-09-01T21:25:17.403Z,14.53
2022-09-01T21:27:52.118Z,14.42
2022-09-01T21:30:19.818Z,14.40
2022-09-01T21:32:47.089Z,14.57
2022-09-01T21:35:17.149Z,14.56
2022-09-01T21:37:44.094Z,14.47
2022-09-01T21:40:12.144Z,14.49
2022-09-01T21:43:01.779Z,14.45
2022-09-01T21:45:28.904Z,14.42
2022-09-01T21:47:55.743Z,14.57
2022-09-01T21:50:25.301Z,14.43
2022-09-01T21:52:52.224Z,14.43
2022-09-01T21:55:22.862Z,14.38
2022-09-01T21:57:51.175Z,14.49
2022-09-01T22:00:21.922Z,14.40
2022-09-01T22:02:49.235Z,14.45
2022-09-01T22:05:16.132Z,14.42
2022-09-01T22:07:45.489Z,14.32
2022-09-01T22:10:15.696Z,14.25
2022-09-01T22:12:45.023Z,14.14
2022-09-01T22:15:13.773Z,14.14
2022-09-01T22:17:40.898Z,14.19
2022-09-01T22:20:09.256Z,14.31
2022-09-01T22:22:36.236Z,14.19
2022-09-01T22:25:08.399Z,14.18
2022-09-01T22:27:35.428Z,14.16
2022-09-01T22:30:04.333Z,14.14
2022-09-01T22:32:33.158Z,14.17
2022-09-01T22:35:02.603Z,14.11
2022-09-01T22:37:29.544Z,14.21
2022-09-01T22:39:56.310Z,14.05
2022-09-01T22:42:23.110Z,14.25
2022-09-01T22:44:49.972Z,14.23
2022-09-01T22:47:16.863Z,14.10
2022-09-01T22:49:43.868Z,14.03
2022-09-01T22:52:10.749Z,14.15
2022-09-01T22:54:41.096Z,13.99
2022-09-01T22:57:08.034Z,14.13
2022-09-01T22:59:35.001Z,13.97
2022-09-01T23:02:02.029Z,14.01
2022-09-01T23:04:30.992Z,14.01
2022-09-01T23:06:58.184Z,14.13
2022-09-01T23:09:25.062Z,14.11
2022-09-01T23:11:51.933Z,14.20
2022-09-01T23:14:18.849Z,14.09
2022-09-01T23:16:47.133Z,13.99
2022-09-01T23:19:19.613Z,13.95
2022-09-01T23:21:47.890Z,13.81
2022-09-01T23:24:15.283Z,13.89
2022-09-01T23:26:42.226Z,13.94
2022-09-01T23:29:09.611Z,13.85
2022-09-01T23:31:38.265Z,13.83
2022-09-01T23:34:07.216Z,13.88
2022-09-01T23:36:35.104Z,13.84
2022-09-01T23:39:04.447Z,13.85
2022-09-01T23:41:33.971Z,13.68
2022-09-01T23:44:04.077Z,13.85
2022-09-01T23:46:34.387Z,13.83
2022-09-01T23:49:02.068Z,13.73
2022-09-01T23:51:30.020Z,13.69
2022-09-01T23:53:56.994Z,13.85
2022-09-01T23:56:26.048Z,13.91
2022-09-01T23:58:53.020Z,13.88
